Nelson, New York
Current Conditions -  °F | °C
As of 6:25 PM on Friday 19 Dec 2014 (Local Time) from KSYR Reporting Station
Light Snow Light Snow  
Wind Chill: 19°   Ceiling: 2100
Heat Index: 27°   Visibility: 9mi
Dew Point: 21°   Wind: 8mph
Humidity: 78%   Direction: 280°W
Pressure: 30.21"   Gusts: NA
Location:  42.9403°N, 75.8232°W
Report Text: KSYR 192325Z 28007KT 9SM -SN OVC021 M03/M06 A3021 RMK AO2 P0000 T10281061
Loading
Personal Weather Stations






























Interactive Weather Map New forecast layout! Learn more

10-Day Weather Forecast

Advertisements
Track Severe Weather on mobile